Gemmell, Minnesota
Current Conditions -  °F | °C
As of 9:09 AM on Thursday 18 Dec 2014 (Local Time) from KVWU Reporting Station
Clear Clear  
Wind Chill:   Ceiling: Unl
Heat Index:   Visibility: 10mi
Dew Point:   Wind: 0mph
Humidity: 92%   Direction: NA
Pressure: 30.27"   Gusts: NA
Location:  47.9892°N, 94.2138°W
Report Text: KVWU 181509Z AUTO 00000KT 10SM CLR M13/M14 A3027 RMK AO2
Loading
Personal Weather Stations






























Interactive Weather Map New forecast layout! Learn more

10-Day Weather Forecast

Advertisements
Track Severe Weather on mobile